sensor_id;sensor_type;location;lat;lon;timestamp;pressure;altitude;pressure_sealevel;temperature;humidity
82160;BME280;77253;50.876;7.372;2024-03-23T00:54:29;98246.16;;;9.54;86.38
82160;BME280;77253;50.876;7.372;2024-03-23T00:56:55;98252.09;;;9.59;86.80
82160;BME280;77253;50.876;7.372;2024-03-23T00:59:20;98251.44;;;9.54;88.24
82160;BME280;77253;50.876;7.372;2024-03-23T01:01:52;98245.13;;;9.38;88.32
82160;BME280;77253;50.876;7.372;2024-03-23T01:06:42;98239.69;;;9.61;89.04
82160;BME280;77253;50.876;7.372;2024-03-23T01:09:09;98252.84;;;9.42;86.74
82160;BME280;77253;50.876;7.372;2024-03-23T01:11:36;98244.22;;;9.18;89.22
82160;BME280;77253;50.876;7.372;2024-03-23T01:14:03;98233.25;;;9.27;88.69
82160;BME280;77253;50.876;7.372;2024-03-23T01:16:31;98232.84;;;9.37;88.38
82160;BME280;77253;50.876;7.372;2024-03-23T01:18:58;98231.13;;;9.36;88.65
82160;BME280;77253;50.876;7.372;2024-03-23T01:21:23;98234.69;;;9.34;87.49
82160;BME280;77253;50.876;7.372;2024-03-23T01:23:50;98238.41;;;9.30;88.19
82160;BME280;77253;50.876;7.372;2024-03-23T01:26:15;98229.56;;;9.31;88.78
82160;BME280;77253;50.876;7.372;2024-03-23T01:28:41;98226.25;;;9.26;87.67
82160;BME280;77253;50.876;7.372;2024-03-23T01:31:07;98237.22;;;9.17;87.01
82160;BME280;77253;50.876;7.372;2024-03-23T01:33:32;98239.94;;;9.16;88.25
82160;BME280;77253;50.876;7.372;2024-03-23T01:35:59;98232.75;;;8.99;89.61
82160;BME280;77253;50.876;7.372;2024-03-23T01:38:24;98243.56;;;8.93;88.18
82160;BME280;77253;50.876;7.372;2024-03-23T01:40:56;98241.72;;;8.95;88.94
82160;BME280;77253;50.876;7.372;2024-03-23T01:43:22;98236.31;;;8.98;91.05
82160;BME280;77253;50.876;7.372;2024-03-23T01:45:53;98225.50;;;9.04;88.72
82160;BME280;77253;50.876;7.372;2024-03-23T01:48:21;98226.78;;;8.94;88.86
82160;BME280;77253;50.876;7.372;2024-03-23T01:50:48;98225.59;;;8.81;89.79
82160;BME280;77253;50.876;7.372;2024-03-23T01:53:14;98231.31;;;8.92;90.01
82160;BME280;77253;50.876;7.372;2024-03-23T01:55:42;98233.66;;;8.78;91.25
82160;BME280;77253;50.876;7.372;2024-03-23T01:58:08;98224.81;;;8.99;88.65
82160;BME280;77253;50.876;7.372;2024-03-23T02:00:37;98213.19;;;8.83;89.35
82160;BME280;77253;50.876;7.372;2024-03-23T02:03:22;98196.16;;;8.90;89.95
82160;BME280;77253;50.876;7.372;2024-03-23T02:05:53;98193.03;;;8.80;89.98
82160;BME280;77253;50.876;7.372;2024-03-23T02:08:21;98190.63;;;8.96;89.96
82160;BME280;77253;50.876;7.372;2024-03-23T02:10:53;98192.72;;;8.88;88.68
82160;BME280;77253;50.876;7.372;2024-03-23T02:13:19;98192.31;;;8.77;88.26
82160;BME280;77253;50.876;7.372;2024-03-23T02:15:46;98181.50;;;8.63;91.07
82160;BME280;77253;50.876;7.372;2024-03-23T02:18:11;98185.88;;;8.64;89.72
82160;BME280;77253;50.876;7.372;2024-03-23T02:20:38;98191.19;;;8.62;89.91
82160;BME280;77253;50.876;7.372;2024-03-23T02:23:04;98187.69;;;8.62;89.59
82160;BME280;77253;50.876;7.372;2024-03-23T02:25:32;98180.16;;;8.53;91.19
82160;BME280;77253;50.876;7.372;2024-03-23T02:27:57;98176.59;;;8.54;90.06
82160;BME280;77253;50.876;7.372;2024-03-23T02:30:25;98190.06;;;8.48;90.43
82160;BME280;77253;50.876;7.372;2024-03-23T02:32:51;98188.88;;;8.55;89.95
82160;BME280;77253;50.876;7.372;2024-03-23T02:35:17;98185.78;;;8.65;88.96
82160;BME280;77253;50.876;7.372;2024-03-23T02:37:43;98183.25;;;8.42;88.48
82160;BME280;77253;50.876;7.372;2024-03-23T02:40:09;98205.66;;;8.54;90.00
82160;BME280;77253;50.876;7.372;2024-03-23T02:42:35;98192.78;;;8.66;90.89
82160;BME280;77253;50.876;7.372;2024-03-23T02:45:02;98210.94;;;8.54;90.94
82160;BME280;77253;50.876;7.372;2024-03-23T02:47:30;98201.25;;;8.32;90.05
82160;BME280;77253;50.876;7.372;2024-03-23T02:49:56;98210.38;;;8.46;90.65
82160;BME280;77253;50.876;7.372;2024-03-23T02:52:22;98205.91;;;8.48;90.18
82160;BME280;77253;50.876;7.372;2024-03-23T02:54:48;98197.59;;;8.57;89.12
82160;BME280;77253;50.876;7.372;2024-03-23T02:57:13;98190.09;;;8.24;91.77
82160;BME280;77253;50.876;7.372;2024-03-23T02:59:40;98181.91;;;8.10;89.88
82160;BME280;77253;50.876;7.372;2024-03-23T03:02:06;98196.97;;;8.28;90.94
82160;BME280;77253;50.876;7.372;2024-03-23T03:04:32;98203.38;;;8.01;90.71
82160;BME280;77253;50.876;7.372;2024-03-23T03:06:58;98212.28;;;7.99;90.62
82160;BME280;77253;50.876;7.372;2024-03-23T03:09:25;98208.41;;;7.85;89.58
82160;BME280;77253;50.876;7.372;2024-03-23T03:11:50;98218.03;;;7.41;87.61
82160;BME280;77253;50.876;7.372;2024-03-23T03:14:16;98222.75;;;7.32;92.95
82160;BME280;77253;50.876;7.372;2024-03-23T03:16:42;98212.50;;;7.47;88.51
82160;BME280;77253;50.876;7.372;2024-03-23T03:19:08;98214.84;;;7.32;89.30
82160;BME280;77253;50.876;7.372;2024-03-23T03:21:35;98219.31;;;7.05;90.05
82160;BME280;77253;50.876;7.372;2024-03-23T03:24:02;98213.88;;;6.86;92.56
82160;BME280;77253;50.876;7.372;2024-03-23T03:26:27;98245.13;;;6.71;89.82
82160;BME280;77253;50.876;7.372;2024-03-23T03:28:54;98232.25;;;6.88;91.93
82160;BME280;77253;50.876;7.372;2024-03-23T03:31:20;98235.78;;;6.62;88.20
82160;BME280;77253;50.876;7.372;2024-03-23T03:33:46;98219.53;;;6.76;89.89
82160;BME280;77253;50.876;7.372;2024-03-23T03:36:12;98222.50;;;6.65;90.31
82160;BME280;77253;50.876;7.372;2024-03-23T03:38:39;98222.78;;;6.82;88.97
82160;BME280;77253;50.876;7.372;2024-03-23T03:41:04;98226.31;;;6.81;88.28
82160;BME280;77253;50.876;7.372;2024-03-23T03:43:31;98238.53;;;6.84;87.84
82160;BME280;77253;50.876;7.372;2024-03-23T03:45:58;98236.78;;;6.84;87.32
82160;BME280;77253;50.876;7.372;2024-03-23T03:48:25;98236.38;;;6.95;88.50
82160;BME280;77253;50.876;7.372;2024-03-23T03:50:52;98223.84;;;7.01;86.97
82160;BME280;77253;50.876;7.372;2024-03-23T03:53:19;98228.66;;;6.90;85.53
82160;BME280;77253;50.876;7.372;2024-03-23T03:55:44;98222.31;;;6.96;87.56
82160;BME280;77253;50.876;7.372;2024-03-23T03:58:11;98238.03;;;7.22;86.85
82160;BME280;77253;50.876;7.372;2024-03-23T04:00:36;98233.06;;;7.38;86.12
82160;BME280;77253;50.876;7.372;2024-03-23T04:03:03;98240.47;;;7.28;84.61
82160;BME280;77253;50.876;7.372;2024-03-23T04:05:29;98253.53;;;7.31;84.61
82160;BME280;77253;50.876;7.372;2024-03-23T04:07:55;98247.72;;;7.22;85.08
82160;BME280;77253;50.876;7.372;2024-03-23T04:10:21;98250.41;;;7.20;84.99
82160;BME280;77253;50.876;7.372;2024-03-23T04:12:48;98254.78;;;7.21;86.91
82160;BME280;77253;50.876;7.372;2024-03-23T04:15:14;98245.25;;;7.17;85.00
82160;BME280;77253;50.876;7.372;2024-03-23T04:17:40;98232.31;;;7.34;84.65
82160;BME280;77253;50.876;7.372;2024-03-23T04:20:08;98251.47;;;7.39;83.75
82160;BME280;77253;50.876;7.372;2024-03-23T04:22:37;98255.38;;;7.29;85.83
82160;BME280;77253;50.876;7.372;2024-03-23T04:25:03;98252.56;;;6.84;85.75
82160;BME280;77253;50.876;7.372;2024-03-23T04:27:34;98267.16;;;6.93;87.13
82160;BME280;77253;50.876;7.372;2024-03-23T04:30:00;98259.47;;;6.88;86.83
82160;BME280;77253;50.876;7.372;2024-03-23T04:32:28;98258.25;;;6.97;86.26
82160;BME280;77253;50.876;7.372;2024-03-23T04:34:54;98259.97;;;6.98;86.82
82160;BME280;77253;50.876;7.372;2024-03-23T04:37:21;98257.88;;;6.83;84.89
82160;BME280;77253;50.876;7.372;2024-03-23T04:39:48;98276.06;;;6.90;85.88
82160;BME280;77253;50.876;7.372;2024-03-23T04:42:15;98272.06;;;6.79;84.00
82160;BME280;77253;50.876;7.372;2024-03-23T04:44:42;98282.56;;;6.80;86.61
82160;BME280;77253;50.876;7.372;2024-03-23T04:47:10;98285.72;;;6.37;86.70
82160;BME280;77253;50.876;7.372;2024-03-23T04:49:36;98291.47;;;6.76;87.06
82160;BME280;77253;50.876;7.372;2024-03-23T04:52:04;98296.50;;;6.82;87.33
82160;BME280;77253;50.876;7.372;2024-03-23T04:54:31;98283.91;;;6.66;87.71
82160;BME280;77253;50.876;7.372;2024-03-23T04:56:58;98285.22;;;6.79;84.62
82160;BME280;77253;50.876;7.372;2024-03-23T04:59:24;98290.00;;;6.68;85.17
82160;BME280;77253;50.876;7.372;2024-03-23T05:01:51;98276.13;;;6.63;88.03
82160;BME280;77253;50.876;7.372;2024-03-23T05:04:18;98287.38;;;6.68;87.01
82160;BME280;77253;50.876;7.372;2024-03-23T05:06:43;98278.03;;;6.84;87.07
82160;BME280;77253;50.876;7.372;2024-03-23T05:09:10;98291.25;;;6.82;86.93
82160;BME280;77253;50.876;7.372;2024-03-23T05:11:37;98286.03;;;6.81;87.20
82160;BME280;77253;50.876;7.372;2024-03-23T05:14:04;98294.84;;;6.80;86.80
82160;BME280;77253;50.876;7.372;2024-03-23T05:16:29;98299.75;;;6.90;86.13
82160;BME280;77253;50.876;7.372;2024-03-23T05:18:56;98307.50;;;6.95;87.32
82160;BME280;77253;50.876;7.372;2024-03-23T05:21:21;98290.88;;;6.93;85.89
82160;BME280;77253;50.876;7.372;2024-03-23T05:23:48;98295.34;;;6.91;86.16
82160;BME280;77253;50.876;7.372;2024-03-23T05:26:14;98288.25;;;6.93;86.12
82160;BME280;77253;50.876;7.372;2024-03-23T05:28:40;98291.28;;;7.07;86.56
82160;BME280;77253;50.876;7.372;2024-03-23T05:31:06;98288.53;;;7.10;86.21
82160;BME280;77253;50.876;7.372;2024-03-23T05:33:34;98290.53;;;7.04;85.83
82160;BME280;77253;50.876;7.372;2024-03-23T05:36:01;98286.38;;;6.96;86.07
82160;BME280;77253;50.876;7.372;2024-03-23T05:38:28;98299.56;;;6.96;85.99
82160;BME280;77253;50.876;7.372;2024-03-23T05:41:00;98301.09;;;7.02;86.28
82160;BME280;77253;50.876;7.372;2024-03-23T05:43:27;98299.28;;;7.04;85.10
82160;BME280;77253;50.876;7.372;2024-03-23T05:45:57;98302.84;;;6.77;86.68
82160;BME280;77253;50.876;7.372;2024-03-23T05:48:25;98295.66;;;6.82;86.86
82160;BME280;77253;50.876;7.372;2024-03-23T05:50:52;98299.25;;;6.79;86.71
82160;BME280;77253;50.876;7.372;2024-03-23T05:53:19;98301.53;;;6.64;89.14
82160;BME280;77253;50.876;7.372;2024-03-23T05:55:45;98312.16;;;6.61;89.25
82160;BME280;77253;50.876;7.372;2024-03-23T05:58:12;98309.38;;;6.65;89.72
82160;BME280;77253;50.876;7.372;2024-03-23T06:00:38;98313.97;;;6.85;89.14
82160;BME280;77253;50.876;7.372;2024-03-23T06:03:04;98318.53;;;7.06;88.32
82160;BME280;77253;50.876;7.372;2024-03-23T06:05:30;98314.50;;;6.96;88.64
82160;BME280;77253;50.876;7.372;2024-03-23T06:07:56;98297.69;;;6.74;88.13
82160;BME280;77253;50.876;7.372;2024-03-23T06:10:22;98296.94;;;6.70;89.75
82160;BME280;77253;50.876;7.372;2024-03-23T06:12:49;98310.84;;;6.74;89.21
82160;BME280;77253;50.876;7.372;2024-03-23T06:15:20;98307.81;;;6.86;89.04
82160;BME280;77253;50.876;7.372;2024-03-23T06:17:45;98307.66;;;6.90;88.93
82160;BME280;77253;50.876;7.372;2024-03-23T06:20:12;98303.97;;;6.70;87.86
82160;BME280;77253;50.876;7.372;2024-03-23T06:22:38;98310.31;;;6.89;89.06
82160;BME280;77253;50.876;7.372;2024-03-23T06:25:05;98313.19;;;6.83;88.63
82160;BME280;77253;50.876;7.372;2024-03-23T06:27:31;98317.88;;;6.73;89.59
82160;BME280;77253;50.876;7.372;2024-03-23T06:29:59;98317.22;;;6.67;88.99
82160;BME280;77253;50.876;7.372;2024-03-23T06:32:25;98308.22;;;6.74;89.53
82160;BME280;77253;50.876;7.372;2024-03-23T06:34:51;98306.84;;;6.62;90.38
82160;BME280;77253;50.876;7.372;2024-03-23T06:37:16;98313.59;;;6.71;89.90
82160;BME280;77253;50.876;7.372;2024-03-23T06:39:46;98313.72;;;6.66;89.52
82160;BME280;77253;50.876;7.372;2024-03-23T06:42:11;98317.53;;;6.58;90.42
82160;BME280;77253;50.876;7.372;2024-03-23T06:44:38;98320.00;;;6.62;89.18
82160;BME280;77253;50.876;7.372;2024-03-23T06:47:04;98313.69;;;6.40;91.13
82160;BME280;77253;50.876;7.372;2024-03-23T06:49:32;98321.78;;;6.62;90.55
82160;BME280;77253;50.876;7.372;2024-03-23T06:51:57;98317.41;;;6.61;90.40
82160;BME280;77253;50.876;7.372;2024-03-23T06:54:25;98330.13;;;6.74;90.33
82160;BME280;77253;50.876;7.372;2024-03-23T06:56:50;98327.47;;;6.76;90.06
82160;BME280;77253;50.876;7.372;2024-03-23T06:59:17;98337.69;;;6.85;89.61
82160;BME280;77253;50.876;7.372;2024-03-23T07:01:42;98336.06;;;6.81;89.33
82160;BME280;77253;50.876;7.372;2024-03-23T07:04:09;98335.22;;;6.80;89.77
82160;BME280;77253;50.876;7.372;2024-03-23T07:06:43;98341.09;;;6.88;89.29
82160;BME280;77253;50.876;7.372;2024-03-23T07:09:10;98343.25;;;7.02;89.71
82160;BME280;77253;50.876;7.372;2024-03-23T07:11:35;98341.13;;;6.87;88.42
82160;BME280;77253;50.876;7.372;2024-03-23T07:14:02;98330.78;;;6.81;88.98
82160;BME280;77253;50.876;7.372;2024-03-23T07:16:28;98329.53;;;6.92;90.07
82160;BME280;77253;50.876;7.372;2024-03-23T07:18:55;98335.22;;;7.05;89.01
82160;BME280;77253;50.876;7.372;2024-03-23T07:21:20;98334.47;;;7.01;88.55
82160;BME280;77253;50.876;7.372;2024-03-23T07:23:47;98330.59;;;6.87;89.89
82160;BME280;77253;50.876;7.372;2024-03-23T07:26:15;98346.59;;;7.07;89.10
82160;BME280;77253;50.876;7.372;2024-03-23T07:28:49;98344.06;;;6.78;91.29
82160;BME280;77253;50.876;7.372;2024-03-23T07:31:15;98349.19;;;6.82;91.69
82160;BME280;77253;50.876;7.372;2024-03-23T07:33:46;98342.47;;;7.00;91.48
82160;BME280;77253;50.876;7.372;2024-03-23T07:36:12;98350.22;;;7.05;90.85
82160;BME280;77253;50.876;7.372;2024-03-23T07:38:42;98352.75;;;7.32;90.34
82160;BME280;77253;50.876;7.372;2024-03-23T07:41:09;98357.63;;;7.18;90.25
82160;BME280;77253;50.876;7.372;2024-03-23T07:43:37;98349.97;;;7.11;89.22
82160;BME280;77253;50.876;7.372;2024-03-23T07:46:03;98352.47;;;7.15;89.24
82160;BME280;77253;50.876;7.372;2024-03-23T07:48:30;98355.06;;;7.17;89.54
82160;BME280;77253;50.876;7.372;2024-03-23T07:51:17;98350.53;;;7.20;90.20
82160;BME280;77253;50.876;7.372;2024-03-23T07:53:44;98362.38;;;7.33;89.97
82160;BME280;77253;50.876;7.372;2024-03-23T07:56:10;98358.78;;;7.36;89.38
82160;BME280;77253;50.876;7.372;2024-03-23T07:58:38;98364.16;;;7.33;89.94
82160;BME280;77253;50.876;7.372;2024-03-23T08:01:09;98357.28;;;7.29;90.51
82160;BME280;77253;50.876;7.372;2024-03-23T08:03:50;98359.94;;;7.27;91.03
82160;BME280;77253;50.876;7.372;2024-03-23T08:06:17;98375.81;;;7.51;89.80
82160;BME280;77253;50.876;7.372;2024-03-23T08:08:45;98377.53;;;7.76;89.43
82160;BME280;77253;50.876;7.372;2024-03-23T08:11:12;98365.06;;;7.81;90.26
82160;BME280;77253;50.876;7.372;2024-03-23T08:13:39;98375.50;;;7.84;89.43
82160;BME280;77253;50.876;7.372;2024-03-23T08:16:06;98380.75;;;7.84;88.29
82160;BME280;77253;50.876;7.372;2024-03-23T08:18:32;98368.78;;;7.99;89.37
82160;BME280;77253;50.876;7.372;2024-03-23T08:21:00;98365.00;;;8.06;89.14
82160;BME280;77253;50.876;7.372;2024-03-23T08:23:30;98365.47;;;8.17;87.65
82160;BME280;77253;50.876;7.372;2024-03-23T08:26:00;98370.03;;;7.89;86.48
82160;BME280;77253;50.876;7.372;2024-03-23T08:28:26;98363.94;;;7.87;88.01
82160;BME280;77253;50.876;7.372;2024-03-23T08:30:53;98371.91;;;8.10;88.38
82160;BME280;77253;50.876;7.372;2024-03-23T08:33:19;98376.94;;;8.16;88.13
82160;BME280;77253;50.876;7.372;2024-03-23T08:36:06;98377.63;;;7.98;88.41
82160;BME280;77253;50.876;7.372;2024-03-23T08:38:31;98365.09;;;8.03;88.23
82160;BME280;77253;50.876;7.372;2024-03-23T08:41:09;98368.84;;;7.98;86.05
82160;BME280;77253;50.876;7.372;2024-03-23T08:43:41;98384.97;;;7.90;86.40
82160;BME280;77253;50.876;7.372;2024-03-23T08:46:09;98367.25;;;8.17;86.27
82160;BME280;77253;50.876;7.372;2024-03-23T08:48:35;98371.66;;;8.39;86.28
82160;BME280;77253;50.876;7.372;2024-03-23T08:51:06;98378.75;;;8.39;84.85
82160;BME280;77253;50.876;7.372;2024-03-23T08:53:35;98374.09;;;8.89;84.74
82160;BME280;77253;50.876;7.372;2024-03-23T08:56:03;98362.41;;;9.57;82.69
82160;BME280;77253;50.876;7.372;2024-03-23T08:58:30;98364.91;;;9.80;82.14
82160;BME280;77253;50.876;7.372;2024-03-23T09:01:11;98353.88;;;9.30;78.67
82160;BME280;77253;50.876;7.372;2024-03-23T09:03:38;98359.00;;;8.71;76.88
82160;BME280;77253;50.876;7.372;2024-03-23T09:06:08;98372.47;;;8.18;74.28
82160;BME280;77253;50.876;7.372;2024-03-23T09:08:34;98385.28;;;8.27;76.31
82160;BME280;77253;50.876;7.372;2024-03-23T09:11:27;98381.16;;;8.67;74.51
82160;BME280;77253;50.876;7.372;2024-03-23T09:13:57;98367.75;;;9.15;76.08
82160;BME280;77253;50.876;7.372;2024-03-23T09:16:23;98373.00;;;9.57;75.79
82160;BME280;77253;50.876;7.372;2024-03-23T09:18:49;98384.34;;;9.79;74.29
82160;BME280;77253;50.876;7.372;2024-03-23T09:21:15;98375.19;;;10.06;74.40
82160;BME280;77253;50.876;7.372;2024-03-23T09:23:44;98367.44;;;10.22;74.57
82160;BME280;77253;50.876;7.372;2024-03-23T09:26:10;98368.50;;;10.18;73.16
82160;BME280;77253;50.876;7.372;2024-03-23T09:28:36;98366.22;;;9.90;74.20
82160;BME280;77253;50.876;7.372;2024-03-23T09:31:08;98355.97;;;9.62;73.02
82160;BME280;77253;50.876;7.372;2024-03-23T09:33:36;98355.91;;;10.03;72.48
82160;BME280;77253;50.876;7.372;2024-03-23T09:36:05;98356.84;;;10.22;72.06
82160;BME280;77253;50.876;7.372;2024-03-23T09:38:32;98339.78;;;10.65;72.09
82160;BME280;77253;50.876;7.372;2024-03-23T09:40:58;98344.81;;;10.71;71.75
82160;BME280;77253;50.876;7.372;2024-03-23T09:43:24;98347.09;;;10.79;67.79
82160;BME280;77253;50.876;7.372;2024-03-23T09:45:51;98352.47;;;10.21;72.25
82160;BME280;77253;50.876;7.372;2024-03-23T09:48:18;98349.19;;;9.57;73.89
82160;BME280;77253;50.876;7.372;2024-03-23T09:50:45;98354.84;;;9.07;74.29
82160;BME280;77253;50.876;7.372;2024-03-23T09:53:13;98335.13;;;8.72;75.70
82160;BME280;77253;50.876;7.372;2024-03-23T09:55:40;98340.66;;;8.45;76.90
82160;BME280;77253;50.876;7.372;2024-03-23T09:58:07;98349.28;;;8.26;78.86
82160;BME280;77253;50.876;7.372;2024-03-23T10:00:36;98354.66;;;8.23;81.23
82160;BME280;77253;50.876;7.372;2024-03-23T10:03:04;98343.00;;;8.30;81.92
82160;BME280;77253;50.876;7.372;2024-03-23T10:05:31;98350.03;;;8.07;84.64
82160;BME280;77253;50.876;7.372;2024-03-23T10:07:59;98351.44;;;8.62;84.35
82160;BME280;77253;50.876;7.372;2024-03-23T10:10:25;98340.19;;;8.35;79.68
82160;BME280;77253;50.876;7.372;2024-03-23T10:12:52;98355.81;;;8.16;79.72
82160;BME280;77253;50.876;7.372;2024-03-23T10:15:19;98356.25;;;8.27;82.77
82160;BME280;77253;50.876;7.372;2024-03-23T10:17:46;98342.72;;;8.60;81.34
82160;BME280;77253;50.876;7.372;2024-03-23T10:20:23;98349.19;;;9.37;76.75
82160;BME280;77253;50.876;7.372;2024-03-23T10:22:50;98345.53;;;9.79;77.67
82160;BME280;77253;50.876;7.372;2024-03-23T10:25:16;98335.72;;;10.58;76.54
82160;BME280;77253;50.876;7.372;2024-03-23T10:27:43;98334.09;;;10.91;70.64
82160;BME280;77253;50.876;7.372;2024-03-23T10:30:13;98339.59;;;11.40;71.07
82160;BME280;77253;50.876;7.372;2024-03-23T10:32:40;98330.34;;;11.47;68.37
82160;BME280;77253;50.876;7.372;2024-03-23T10:35:19;98326.13;;;11.60;64.35
82160;BME280;77253;50.876;7.372;2024-03-23T10:37:47;98319.69;;;11.98;64.48
82160;BME280;77253;50.876;7.372;2024-03-23T10:40:15;98310.22;;;12.10;62.21
82160;BME280;77253;50.876;7.372;2024-03-23T10:42:42;98316.22;;;12.45;67.29
82160;BME280;77253;50.876;7.372;2024-03-23T10:45:08;98311.88;;;11.95;62.48
82160;BME280;77253;50.876;7.372;2024-03-23T10:47:36;98315.16;;;10.99;66.19
82160;BME280;77253;50.876;7.372;2024-03-23T10:50:04;98314.19;;;10.47;66.72
82160;BME280;77253;50.876;7.372;2024-03-23T10:52:33;98330.31;;;10.03;67.16
82160;BME280;77253;50.876;7.372;2024-03-23T10:55:02;98325.38;;;9.57;66.06
82160;BME280;77253;50.876;7.372;2024-03-23T10:57:50;98340.13;;;9.42;68.48
82160;BME280;77253;50.876;7.372;2024-03-23T11:00:17;98354.03;;;9.05;71.90
82160;BME280;77253;50.876;7.372;2024-03-23T11:02:44;98370.91;;;8.36;72.31
82160;BME280;77253;50.876;7.372;2024-03-23T11:05:29;98389.31;;;7.17;74.37
82160;BME280;77253;50.876;7.372;2024-03-23T11:07:58;98413.88;;;6.91;80.33
82160;BME280;77253;50.876;7.372;2024-03-23T11:10:26;98406.22;;;6.26;80.63
82160;BME280;77253;50.876;7.372;2024-03-23T11:12:54;98399.50;;;6.16;85.99
82160;BME280;77253;50.876;7.372;2024-03-23T11:15:19;98419.44;;;6.52;85.27
82160;BME280;77253;50.876;7.372;2024-03-23T11:18:05;98414.06;;;7.11;85.45
82160;BME280;77253;50.876;7.372;2024-03-23T11:20:33;98387.34;;;7.22;83.77
82160;BME280;77253;50.876;7.372;2024-03-23T11:23:00;98403.47;;;7.64;83.80
82160;BME280;77253;50.876;7.372;2024-03-23T11:25:27;98390.16;;;7.91;84.17
82160;BME280;77253;50.876;7.372;2024-03-23T11:27:58;98394.38;;;8.20;82.87
82160;BME280;77253;50.876;7.372;2024-03-23T11:30:44;98388.84;;;8.73;82.28
82160;BME280;77253;50.876;7.372;2024-03-23T11:33:12;98378.69;;;9.48;81.47
82160;BME280;77253;50.876;7.372;2024-03-23T11:35:38;98382.22;;;9.87;80.69
82160;BME280;77253;50.876;7.372;2024-03-23T11:38:11;98378.41;;;9.54;76.26
82160;BME280;77253;50.876;7.372;2024-03-23T11:40:39;98367.22;;;9.47;75.88
82160;BME280;77253;50.876;7.372;2024-03-23T11:43:18;98378.31;;;10.16;76.40
82160;BME280;77253;50.876;7.372;2024-03-23T11:45:53;98361.38;;;10.93;73.90
82160;BME280;77253;50.876;7.372;2024-03-23T11:48:21;98361.09;;;11.68;73.97
82160;BME280;77253;50.876;7.372;2024-03-23T11:50:53;98356.94;;;10.94;73.96
82160;BME280;77253;50.876;7.372;2024-03-23T11:53:22;98363.88;;;10.42;71.67
82160;BME280;77253;50.876;7.372;2024-03-23T11:55:53;98367.25;;;10.06;73.49
82160;BME280;77253;50.876;7.372;2024-03-23T11:58:20;98362.41;;;9.77;75.86
82160;BME280;77253;50.876;7.372;2024-03-23T12:03:17;98363.19;;;8.97;75.50
82160;BME280;77253;50.876;7.372;2024-03-23T12:05:50;98369.44;;;8.06;74.98
82160;BME280;77253;50.876;7.372;2024-03-23T12:08:36;98375.03;;;7.48;76.79
82160;BME280;77253;50.876;7.372;2024-03-23T12:13:38;98374.47;;;6.32;83.27
82160;BME280;77253;50.876;7.372;2024-03-23T12:18:40;98376.16;;;6.89;81.46
82160;BME280;77253;50.876;7.372;2024-03-23T12:21:07;98368.25;;;7.41;76.96
82160;BME280;77253;50.876;7.372;2024-03-23T12:23:32;98355.25;;;8.08;77.47
82160;BME280;77253;50.876;7.372;2024-03-23T12:25:59;98345.16;;;7.73;76.11
82160;BME280;77253;50.876;7.372;2024-03-23T12:28:25;98356.25;;;7.58;78.58
82160;BME280;77253;50.876;7.372;2024-03-23T12:30:54;98369.78;;;7.47;76.98
82160;BME280;77253;50.876;7.372;2024-03-23T12:33:20;98359.78;;;7.32;77.01
82160;BME280;77253;50.876;7.372;2024-03-23T12:35:55;98378.81;;;7.15;78.79
82160;BME280;77253;50.876;7.372;2024-03-23T12:38:23;98363.41;;;7.03;78.02
82160;BME280;77253;50.876;7.372;2024-03-23T12:40:52;98360.69;;;6.80;76.86
82160;BME280;77253;50.876;7.372;2024-03-23T12:43:18;98346.91;;;6.72;78.67
82160;BME280;77253;50.876;7.372;2024-03-23T12:45:48;98335.03;;;6.85;77.72
82160;BME280;77253;50.876;7.372;2024-03-23T12:48:14;98335.41;;;7.00;79.06
82160;BME280;77253;50.876;7.372;2024-03-23T12:50:54;98337.81;;;7.07;78.24
82160;BME280;77253;50.876;7.372;2024-03-23T12:53:20;98352.16;;;7.24;80.52
82160;BME280;77253;50.876;7.372;2024-03-23T12:55:46;98354.59;;;7.04;80.25
82160;BME280;77253;50.876;7.372;2024-03-23T12:58:12;98378.41;;;6.75;79.64
82160;BME280;77253;50.876;7.372;2024-03-23T13:00:38;98385.69;;;6.67;82.73
82160;BME280;77253;50.876;7.372;2024-03-23T13:03:04;98381.69;;;6.26;82.46
82160;BME280;77253;50.876;7.372;2024-03-23T13:05:30;98376.19;;;6.61;84.48
82160;BME280;77253;50.876;7.372;2024-03-23T13:07:56;98373.25;;;6.72;83.98
82160;BME280;77253;50.876;7.372;2024-03-23T13:10:23;98360.50;;;7.37;81.87
82160;BME280;77253;50.876;7.372;2024-03-23T13:12:49;98389.66;;;8.05;85.20
82160;BME280;77253;50.876;7.372;2024-03-23T13:15:14;98363.63;;;7.96;81.12
82160;BME280;77253;50.876;7.372;2024-03-23T13:17:42;98370.63;;;7.74;83.04
82160;BME280;77253;50.876;7.372;2024-03-23T13:20:08;98365.28;;;7.51;81.24
82160;BME280;77253;50.876;7.372;2024-03-23T13:22:38;98356.34;;;7.55;78.05
82160;BME280;77253;50.876;7.372;2024-03-23T13:25:06;98355.38;;;8.05;80.54
82160;BME280;77253;50.876;7.372;2024-03-23T13:27:32;98349.06;;;8.09;79.64
82160;BME280;77253;50.876;7.372;2024-03-23T13:29:57;98355.34;;;8.28;77.90
82160;BME280;77253;50.876;7.372;2024-03-23T13:32:29;98346.44;;;8.32;79.65
82160;BME280;77253;50.876;7.372;2024-03-23T13:34:57;98341.38;;;8.26;79.14
82160;BME280;77253;50.876;7.372;2024-03-23T13:37:29;98338.81;;;8.23;77.41
82160;BME280;77253;50.876;7.372;2024-03-23T13:40:01;98356.50;;;8.21;75.65
82160;BME280;77253;50.876;7.372;2024-03-23T13:42:38;98335.22;;;8.26;78.27
82160;BME280;77253;50.876;7.372;2024-03-23T13:45:19;98341.78;;;8.61;79.24
82160;BME280;77253;50.876;7.372;2024-03-23T13:47:45;98340.22;;;8.99;78.77
82160;BME280;77253;50.876;7.372;2024-03-23T13:50:14;98336.84;;;8.95;77.39
82160;BME280;77253;50.876;7.372;2024-03-23T13:52:40;98319.13;;;8.97;78.02
82160;BME280;77253;50.876;7.372;2024-03-23T13:55:06;98326.16;;;8.98;77.45
82160;BME280;77253;50.876;7.372;2024-03-23T13:57:33;98318.16;;;9.00;76.93
82160;BME280;77253;50.876;7.372;2024-03-23T14:00:01;98330.75;;;8.93;76.70
82160;BME280;77253;50.876;7.372;2024-03-23T14:05:51;98329.72;;;8.97;70.61
82160;BME280;77253;50.876;7.372;2024-03-23T14:08:21;98320.19;;;8.93;75.52
82160;BME280;77253;50.876;7.372;2024-03-23T14:10:46;98314.50;;;8.82;74.91
82160;BME280;77253;50.876;7.372;2024-03-23T14:13:13;98311.63;;;8.88;74.47
82160;BME280;77253;50.876;7.372;2024-03-23T14:15:47;98295.09;;;8.83;75.21
82160;BME280;77253;50.876;7.372;2024-03-23T14:18:21;98294.97;;;8.86;74.34
82160;BME280;77253;50.876;7.372;2024-03-23T14:20:50;98290.94;;;8.56;75.04